sensor_id;sensor_type;location;lat;lon;timestamp;P1;durP1;ratioP1;P2;durP2;ratioP2
32633;SDS011;19043;51.012;5.648;2022-09-03T00:01:34;4.30;;;1.92;;
32633;SDS011;19043;51.012;5.648;2022-09-03T00:04:24;3.70;;;1.67;;
32633;SDS011;19043;51.012;5.648;2022-09-03T00:06:59;4.05;;;1.70;;
32633;SDS011;19043;51.012;5.648;2022-09-03T00:09:28;6.07;;;1.73;;
32633;SDS011;19043;51.012;5.648;2022-09-03T00:14:27;6.10;;;1.55;;
32633;SDS011;19043;51.012;5.648;2022-09-03T00:17:18;5.82;;;1.88;;
32633;SDS011;19043;51.012;5.648;2022-09-03T00:19:55;7.53;;;2.55;;
32633;SDS011;19043;51.012;5.648;2022-09-03T00:22:26;3.03;;;1.42;;
32633;SDS011;19043;51.012;5.648;2022-09-03T00:24:54;3.88;;;1.48;;
32633;SDS011;19043;51.012;5.648;2022-09-03T00:27:22;5.05;;;1.55;;
32633;SDS011;19043;51.012;5.648;2022-09-03T00:29:54;5.05;;;1.63;;
32633;SDS011;19043;51.012;5.648;2022-09-03T00:38:11;4.30;;;2.17;;
32633;SDS011;19043;51.012;5.648;2022-09-03T00:52:18;3.67;;;1.63;;
32633;SDS011;19043;51.012;5.648;2022-09-03T00:57:53;2.28;;;1.15;;
32633;SDS011;19043;51.012;5.648;2022-09-03T01:00:28;2.80;;;1.15;;
32633;SDS011;19043;51.012;5.648;2022-09-03T01:03:03;4.10;;;1.73;;
32633;SDS011;19043;51.012;5.648;2022-09-03T01:10:49;7.17;;;1.50;;
32633;SDS011;19043;51.012;5.648;2022-09-03T01:13:19;4.85;;;1.70;;
32633;SDS011;19043;51.012;5.648;2022-09-03T01:29:45;2.95;;;1.23;;
32633;SDS011;19043;51.012;5.648;2022-09-03T01:32:31;17.27;;;1.50;;
32633;SDS011;19043;51.012;5.648;2022-09-03T01:35:12;3.42;;;1.60;;
32633;SDS011;19043;51.012;5.648;2022-09-03T01:41:13;5.85;;;1.30;;
32633;SDS011;19043;51.012;5.648;2022-09-03T01:43:48;4.70;;;1.70;;
32633;SDS011;19043;51.012;5.648;2022-09-03T01:46:25;3.72;;;1.20;;
32633;SDS011;19043;51.012;5.648;2022-09-03T01:51:30;6.00;;;1.65;;
32633;SDS011;19043;51.012;5.648;2022-09-03T02:02:45;3.83;;;1.95;;
32633;SDS011;19043;51.012;5.648;2022-09-03T02:07:55;3.72;;;1.70;;
32633;SDS011;19043;51.012;5.648;2022-09-03T02:10:24;2.58;;;1.33;;
32633;SDS011;19043;51.012;5.648;2022-09-03T02:12:55;4.70;;;2.00;;
32633;SDS011;19043;51.012;5.648;2022-09-03T02:15:23;4.78;;;1.80;;
32633;SDS011;19043;51.012;5.648;2022-09-03T02:17:50;3.83;;;1.42;;
32633;SDS011;19043;51.012;5.648;2022-09-03T02:20:19;3.40;;;1.75;;
32633;SDS011;19043;51.012;5.648;2022-09-03T02:22:47;2.65;;;1.27;;
32633;SDS011;19043;51.012;5.648;2022-09-03T02:25:13;3.47;;;1.10;;
32633;SDS011;19043;51.012;5.648;2022-09-03T02:27:39;5.07;;;1.50;;
32633;SDS011;19043;51.012;5.648;2022-09-03T02:30:05;3.17;;;1.52;;
32633;SDS011;19043;51.012;5.648;2022-09-03T02:32:31;8.85;;;1.70;;
32633;SDS011;19043;51.012;5.648;2022-09-03T02:34:57;3.40;;;1.35;;
32633;SDS011;19043;51.012;5.648;2022-09-03T02:37:22;3.63;;;1.60;;
32633;SDS011;19043;51.012;5.648;2022-09-03T02:39:48;3.58;;;1.20;;
32633;SDS011;19043;51.012;5.648;2022-09-03T02:42:15;5.53;;;1.60;;
32633;SDS011;19043;51.012;5.648;2022-09-03T02:44:50;4.38;;;1.33;;
32633;SDS011;19043;51.012;5.648;2022-09-03T02:47:17;3.33;;;1.48;;
32633;SDS011;19043;51.012;5.648;2022-09-03T02:49:44;4.22;;;1.55;;
32633;SDS011;19043;51.012;5.648;2022-09-03T02:52:12;3.45;;;1.55;;
32633;SDS011;19043;51.012;5.648;2022-09-03T02:54:38;3.42;;;1.55;;
32633;SDS011;19043;51.012;5.648;2022-09-03T02:57:14;2.20;;;0.93;;
32633;SDS011;19043;51.012;5.648;2022-09-03T02:59:40;4.15;;;1.35;;
32633;SDS011;19043;51.012;5.648;2022-09-03T03:02:08;2.85;;;1.27;;
32633;SDS011;19043;51.012;5.648;2022-09-03T03:04:33;4.78;;;1.45;;
32633;SDS011;19043;51.012;5.648;2022-09-03T03:06:59;2.78;;;1.52;;
32633;SDS011;19043;51.012;5.648;2022-09-03T03:09:24;4.25;;;1.60;;
32633;SDS011;19043;51.012;5.648;2022-09-03T03:11:50;4.80;;;1.60;;
32633;SDS011;19043;51.012;5.648;2022-09-03T03:14:16;3.45;;;1.55;;
32633;SDS011;19043;51.012;5.648;2022-09-03T03:16:42;2.97;;;1.40;;
32633;SDS011;19043;51.012;5.648;2022-09-03T03:19:08;2.00;;;1.08;;
32633;SDS011;19043;51.012;5.648;2022-09-03T03:21:33;3.10;;;1.65;;
32633;SDS011;19043;51.012;5.648;2022-09-03T03:23:59;2.53;;;1.48;;
32633;SDS011;19043;51.012;5.648;2022-09-03T03:26:25;2.85;;;1.30;;
32633;SDS011;19043;51.012;5.648;2022-09-03T03:28:54;3.40;;;1.40;;
32633;SDS011;19043;51.012;5.648;2022-09-03T03:31:21;2.97;;;1.30;;
32633;SDS011;19043;51.012;5.648;2022-09-03T03:33:54;11.38;;;1.95;;
32633;SDS011;19043;51.012;5.648;2022-09-03T03:36:22;2.85;;;1.42;;
32633;SDS011;19043;51.012;5.648;2022-09-03T03:38:48;3.58;;;1.40;;
32633;SDS011;19043;51.012;5.648;2022-09-03T03:41:17;4.57;;;1.48;;
32633;SDS011;19043;51.012;5.648;2022-09-03T03:43:46;3.83;;;1.38;;
32633;SDS011;19043;51.012;5.648;2022-09-03T03:46:12;3.83;;;1.40;;
32633;SDS011;19043;51.012;5.648;2022-09-03T03:48:39;2.92;;;1.30;;
32633;SDS011;19043;51.012;5.648;2022-09-03T03:51:06;3.58;;;1.50;;
32633;SDS011;19043;51.012;5.648;2022-09-03T03:53:33;3.35;;;1.55;;
32633;SDS011;19043;51.012;5.648;2022-09-03T03:56:00;3.33;;;1.42;;
32633;SDS011;19043;51.012;5.648;2022-09-03T03:58:28;5.22;;;1.63;;
32633;SDS011;19043;51.012;5.648;2022-09-03T04:00:55;2.80;;;1.40;;
32633;SDS011;19043;51.012;5.648;2022-09-03T04:03:31;4.18;;;1.50;;
32633;SDS011;19043;51.012;5.648;2022-09-03T04:05:57;3.17;;;1.45;;
32633;SDS011;19043;51.012;5.648;2022-09-03T04:08:24;2.92;;;1.30;;
32633;SDS011;19043;51.012;5.648;2022-09-03T04:10:50;2.80;;;1.35;;
32633;SDS011;19043;51.012;5.648;2022-09-03T04:13:16;3.03;;;1.15;;
32633;SDS011;19043;51.012;5.648;2022-09-03T04:15:41;4.22;;;1.52;;
32633;SDS011;19043;51.012;5.648;2022-09-03T04:18:07;2.75;;;0.85;;
32633;SDS011;19043;51.012;5.648;2022-09-03T04:20:32;2.88;;;1.05;;
32633;SDS011;19043;51.012;5.648;2022-09-03T04:22:59;3.38;;;1.50;;
32633;SDS011;19043;51.012;5.648;2022-09-03T04:25:25;2.67;;;1.20;;
32633;SDS011;19043;51.012;5.648;2022-09-03T04:27:51;2.45;;;1.17;;
32633;SDS011;19043;51.012;5.648;2022-09-03T04:30:17;3.53;;;0.93;;
32633;SDS011;19043;51.012;5.648;2022-09-03T04:32:42;2.13;;;1.00;;
32633;SDS011;19043;51.012;5.648;2022-09-03T04:35:17;2.63;;;1.00;;
32633;SDS011;19043;51.012;5.648;2022-09-03T04:37:44;3.63;;;1.20;;
32633;SDS011;19043;51.012;5.648;2022-09-03T04:40:10;3.50;;;1.38;;
32633;SDS011;19043;51.012;5.648;2022-09-03T04:42:35;3.17;;;1.65;;
32633;SDS011;19043;51.012;5.648;2022-09-03T04:45:01;3.22;;;1.45;;
32633;SDS011;19043;51.012;5.648;2022-09-03T04:47:26;2.65;;;1.23;;
32633;SDS011;19043;51.012;5.648;2022-09-03T04:49:52;3.80;;;1.40;;
32633;SDS011;19043;51.012;5.648;2022-09-03T04:52:18;3.42;;;1.60;;
32633;SDS011;19043;51.012;5.648;2022-09-03T04:54:43;5.10;;;1.23;;
32633;SDS011;19043;51.012;5.648;2022-09-03T04:57:09;5.00;;;1.30;;
32633;SDS011;19043;51.012;5.648;2022-09-03T04:59:34;3.83;;;1.15;;
32633;SDS011;19043;51.012;5.648;2022-09-03T05:01:59;3.60;;;1.40;;
32633;SDS011;19043;51.012;5.648;2022-09-03T05:04:25;3.70;;;1.13;;
32633;SDS011;19043;51.012;5.648;2022-09-03T05:06:50;2.47;;;1.13;;
32633;SDS011;19043;51.012;5.648;2022-09-03T05:09:15;2.97;;;1.20;;
32633;SDS011;19043;51.012;5.648;2022-09-03T05:11:41;3.88;;;1.33;;
32633;SDS011;19043;51.012;5.648;2022-09-03T05:14:06;3.63;;;1.38;;
32633;SDS011;19043;51.012;5.648;2022-09-03T05:16:35;5.88;;;1.63;;
32633;SDS011;19043;51.012;5.648;2022-09-03T05:19:01;2.47;;;1.30;;
32633;SDS011;19043;51.012;5.648;2022-09-03T05:21:29;3.03;;;1.20;;
32633;SDS011;19043;51.012;5.648;2022-09-03T05:23:55;4.85;;;1.42;;
32633;SDS011;19043;51.012;5.648;2022-09-03T05:26:23;14.10;;;1.52;;
32633;SDS011;19043;51.012;5.648;2022-09-03T05:28:53;4.20;;;1.48;;
32633;SDS011;19043;51.012;5.648;2022-09-03T05:31:20;2.53;;;1.02;;
32633;SDS011;19043;51.012;5.648;2022-09-03T05:33:50;5.18;;;1.38;;
32633;SDS011;19043;51.012;5.648;2022-09-03T05:36:18;5.57;;;1.50;;
32633;SDS011;19043;51.012;5.648;2022-09-03T05:38:46;4.32;;;1.10;;
32633;SDS011;19043;51.012;5.648;2022-09-03T05:41:12;4.28;;;1.23;;
32633;SDS011;19043;51.012;5.648;2022-09-03T05:43:38;2.97;;;1.40;;
32633;SDS011;19043;51.012;5.648;2022-09-03T05:46:05;3.78;;;1.40;;
32633;SDS011;19043;51.012;5.648;2022-09-03T05:48:32;2.20;;;1.27;;
32633;SDS011;19043;51.012;5.648;2022-09-03T05:51:02;3.15;;;1.10;;
32633;SDS011;19043;51.012;5.648;2022-09-03T05:53:29;3.47;;;1.10;;
32633;SDS011;19043;51.012;5.648;2022-09-03T05:55:56;2.85;;;1.30;;
32633;SDS011;19043;51.012;5.648;2022-09-03T05:58:24;4.75;;;1.02;;
32633;SDS011;19043;51.012;5.648;2022-09-03T06:00:54;2.95;;;1.13;;
32633;SDS011;19043;51.012;5.648;2022-09-03T06:03:19;2.55;;;1.27;;
32633;SDS011;19043;51.012;5.648;2022-09-03T06:05:51;6.95;;;1.30;;
32633;SDS011;19043;51.012;5.648;2022-09-03T06:08:18;2.83;;;1.20;;
32633;SDS011;19043;51.012;5.648;2022-09-03T06:10:44;1.92;;;0.90;;
32633;SDS011;19043;51.012;5.648;2022-09-03T06:13:09;3.45;;;1.40;;
32633;SDS011;19043;51.012;5.648;2022-09-03T06:15:35;3.55;;;1.42;;
32633;SDS011;19043;51.012;5.648;2022-09-03T06:18:01;6.35;;;1.23;;
32633;SDS011;19043;51.012;5.648;2022-09-03T06:20:26;3.75;;;1.02;;
32633;SDS011;19043;51.012;5.648;2022-09-03T06:22:53;3.20;;;1.00;;
32633;SDS011;19043;51.012;5.648;2022-09-03T06:25:19;3.85;;;1.33;;
32633;SDS011;19043;51.012;5.648;2022-09-03T06:27:45;3.97;;;1.33;;
32633;SDS011;19043;51.012;5.648;2022-09-03T06:30:11;7.70;;;1.60;;
32633;SDS011;19043;51.012;5.648;2022-09-03T06:32:43;6.90;;;1.63;;
32633;SDS011;19043;51.012;5.648;2022-09-03T06:35:09;2.15;;;0.95;;
32633;SDS011;19043;51.012;5.648;2022-09-03T06:37:39;6.63;;;1.30;;
32633;SDS011;19043;51.012;5.648;2022-09-03T06:40:05;2.25;;;0.70;;
32633;SDS011;19043;51.012;5.648;2022-09-03T06:42:32;2.83;;;1.10;;
32633;SDS011;19043;51.012;5.648;2022-09-03T06:44:58;2.63;;;1.25;;
32633;SDS011;19043;51.012;5.648;2022-09-03T06:47:23;3.25;;;1.17;;
32633;SDS011;19043;51.012;5.648;2022-09-03T06:49:48;4.68;;;1.35;;
32633;SDS011;19043;51.012;5.648;2022-09-03T06:52:14;4.43;;;1.30;;
32633;SDS011;19043;51.012;5.648;2022-09-03T06:54:39;5.32;;;1.75;;
32633;SDS011;19043;51.012;5.648;2022-09-03T06:57:05;2.38;;;1.02;;
32633;SDS011;19043;51.012;5.648;2022-09-03T06:59:30;3.85;;;1.17;;
32633;SDS011;19043;51.012;5.648;2022-09-03T07:01:55;6.93;;;1.50;;
32633;SDS011;19043;51.012;5.648;2022-09-03T07:04:22;5.13;;;1.40;;
32633;SDS011;19043;51.012;5.648;2022-09-03T07:06:49;4.65;;;1.25;;
32633;SDS011;19043;51.012;5.648;2022-09-03T07:09:14;4.70;;;1.20;;
32633;SDS011;19043;51.012;5.648;2022-09-03T07:11:42;5.22;;;1.55;;
32633;SDS011;19043;51.012;5.648;2022-09-03T07:14:11;2.05;;;0.98;;
32633;SDS011;19043;51.012;5.648;2022-09-03T07:16:37;2.78;;;1.23;;
32633;SDS011;19043;51.012;5.648;2022-09-03T07:19:03;4.00;;;1.40;;
32633;SDS011;19043;51.012;5.648;2022-09-03T07:21:30;3.47;;;1.65;;
32633;SDS011;19043;51.012;5.648;2022-09-03T07:23:58;3.15;;;1.50;;
32633;SDS011;19043;51.012;5.648;2022-09-03T07:26:25;3.63;;;1.42;;
32633;SDS011;19043;51.012;5.648;2022-09-03T07:28:52;2.80;;;1.40;;
32633;SDS011;19043;51.012;5.648;2022-09-03T07:31:22;2.50;;;1.13;;
32633;SDS011;19043;51.012;5.648;2022-09-03T07:33:49;3.85;;;1.77;;
32633;SDS011;19043;51.012;5.648;2022-09-03T07:36:16;3.50;;;1.50;;
32633;SDS011;19043;51.012;5.648;2022-09-03T07:38:42;8.52;;;1.75;;
32633;SDS011;19043;51.012;5.648;2022-09-03T07:41:12;12.55;;;2.10;;
32633;SDS011;19043;51.012;5.648;2022-09-03T07:43:42;3.58;;;1.80;;
32633;SDS011;19043;51.012;5.648;2022-09-03T07:46:11;3.10;;;1.65;;
32633;SDS011;19043;51.012;5.648;2022-09-03T07:48:38;7.07;;;2.40;;
32633;SDS011;19043;51.012;5.648;2022-09-03T07:51:04;6.50;;;1.73;;
32633;SDS011;19043;51.012;5.648;2022-09-03T07:53:30;3.30;;;1.50;;
32633;SDS011;19043;51.012;5.648;2022-09-03T07:56:05;4.05;;;2.25;;
32633;SDS011;19043;51.012;5.648;2022-09-03T07:58:33;3.33;;;1.30;;
32633;SDS011;19043;51.012;5.648;2022-09-03T08:01:02;3.55;;;1.45;;
32633;SDS011;19043;51.012;5.648;2022-09-03T08:03:33;5.55;;;1.70;;
32633;SDS011;19043;51.012;5.648;2022-09-03T08:05:59;5.47;;;1.80;;
32633;SDS011;19043;51.012;5.648;2022-09-03T08:08:30;6.68;;;1.67;;
32633;SDS011;19043;51.012;5.648;2022-09-03T08:11:06;7.68;;;2.08;;
32633;SDS011;19043;51.012;5.648;2022-09-03T08:13:34;4.28;;;1.70;;
32633;SDS011;19043;51.012;5.648;2022-09-03T08:16:04;5.85;;;1.92;;
32633;SDS011;19043;51.012;5.648;2022-09-03T08:18:31;3.33;;;1.63;;
32633;SDS011;19043;51.012;5.648;2022-09-03T08:21:00;2.85;;;1.40;;
32633;SDS011;19043;51.012;5.648;2022-09-03T08:23:25;4.47;;;2.00;;
32633;SDS011;19043;51.012;5.648;2022-09-03T08:26:00;5.57;;;1.70;;
32633;SDS011;19043;51.012;5.648;2022-09-03T08:28:26;2.80;;;1.58;;
32633;SDS011;19043;51.012;5.648;2022-09-03T08:30:52;6.78;;;1.80;;
32633;SDS011;19043;51.012;5.648;2022-09-03T08:33:17;4.32;;;1.92;;
32633;SDS011;19043;51.012;5.648;2022-09-03T08:36:08;6.57;;;1.70;;
32633;SDS011;19043;51.012;5.648;2022-09-03T08:38:42;3.10;;;1.38;;
32633;SDS011;19043;51.012;5.648;2022-09-03T08:41:13;4.60;;;1.60;;
32633;SDS011;19043;51.012;5.648;2022-09-03T08:46:23;3.42;;;1.42;;
32633;SDS011;19043;51.012;5.648;2022-09-03T08:51:22;3.55;;;1.55;;
32633;SDS011;19043;51.012;5.648;2022-09-03T08:53:51;2.70;;;1.27;;
32633;SDS011;19043;51.012;5.648;2022-09-03T08:56:20;6.25;;;1.80;;
32633;SDS011;19043;51.012;5.648;2022-09-03T08:58:49;3.83;;;1.63;;
32633;SDS011;19043;51.012;5.648;2022-09-03T09:06:50;2.95;;;1.55;;
32633;SDS011;19043;51.012;5.648;2022-09-03T09:09:30;4.45;;;1.55;;
32633;SDS011;19043;51.012;5.648;2022-09-03T09:19:43;3.75;;;1.52;;
32633;SDS011;19043;51.012;5.648;2022-09-03T09:22:16;3.47;;;1.65;;
32633;SDS011;19043;51.012;5.648;2022-09-03T09:24:48;4.30;;;2.05;;
32633;SDS011;19043;51.012;5.648;2022-09-03T09:27:15;3.55;;;1.52;;
32633;SDS011;19043;51.012;5.648;2022-09-03T09:29:41;3.13;;;1.40;;
32633;SDS011;19043;51.012;5.648;2022-09-03T09:32:10;5.13;;;2.00;;
32633;SDS011;19043;51.012;5.648;2022-09-03T09:34:37;3.55;;;1.75;;
32633;SDS011;19043;51.012;5.648;2022-09-03T09:37:05;3.28;;;1.70;;
32633;SDS011;19043;51.012;5.648;2022-09-03T09:42:06;5.03;;;1.77;;
32633;SDS011;19043;51.012;5.648;2022-09-03T09:44:39;3.10;;;1.90;;
32633;SDS011;19043;51.012;5.648;2022-09-03T09:47:07;3.00;;;1.52;;
32633;SDS011;19043;51.012;5.648;2022-09-03T09:49:36;5.93;;;1.95;;
32633;SDS011;19043;51.012;5.648;2022-09-03T09:52:10;6.93;;;2.15;;
32633;SDS011;19043;51.012;5.648;2022-09-03T09:54:36;5.45;;;2.20;;
32633;SDS011;19043;51.012;5.648;2022-09-03T09:57:03;4.30;;;1.77;;
32633;SDS011;19043;51.012;5.648;2022-09-03T09:59:38;3.97;;;1.77;;
32633;SDS011;19043;51.012;5.648;2022-09-03T10:04:36;5.00;;;2.00;;
32633;SDS011;19043;51.012;5.648;2022-09-03T10:07:25;3.78;;;1.88;;
32633;SDS011;19043;51.012;5.648;2022-09-03T10:09:56;4.75;;;2.38;;
32633;SDS011;19043;51.012;5.648;2022-09-03T10:12:32;5.80;;;2.15;;
32633;SDS011;19043;51.012;5.648;2022-09-03T10:15:37;3.95;;;2.15;;
32633;SDS011;19043;51.012;5.648;2022-09-03T10:21:11;9.00;;;2.45;;
32633;SDS011;19043;51.012;5.648;2022-09-03T10:23:50;4.57;;;2.35;;
32633;SDS011;19043;51.012;5.648;2022-09-03T10:26:23;5.30;;;2.22;;
32633;SDS011;19043;51.012;5.648;2022-09-03T10:28:59;3.90;;;2.05;;
32633;SDS011;19043;51.012;5.648;2022-09-03T10:33:53;5.25;;;2.25;;
32633;SDS011;19043;51.012;5.648;2022-09-03T10:36:26;4.78;;;2.30;;
32633;SDS011;19043;51.012;5.648;2022-09-03T10:39:13;5.07;;;2.00;;
32633;SDS011;19043;51.012;5.648;2022-09-03T10:45:11;4.43;;;2.30;;
32633;SDS011;19043;51.012;5.648;2022-09-03T10:47:28;3.10;;;1.88;;
32633;SDS011;19043;51.012;5.648;2022-09-03T10:56:00;5.07;;;2.10;;
32633;SDS011;19043;51.012;5.648;2022-09-03T11:04:09;5.25;;;2.13;;
32633;SDS011;19043;51.012;5.648;2022-09-03T11:06:50;6.93;;;2.15;;
32633;SDS011;19043;51.012;5.648;2022-09-03T11:10:12;7.72;;;2.83;;
32633;SDS011;19043;51.012;5.648;2022-09-03T11:12:29;4.00;;;2.35;;
32633;SDS011;19043;51.012;5.648;2022-09-03T11:15:02;5.00;;;2.40;;
32633;SDS011;19043;51.012;5.648;2022-09-03T11:17:33;7.03;;;2.28;;
32633;SDS011;19043;51.012;5.648;2022-09-03T11:20:25;4.95;;;2.30;;
32633;SDS011;19043;51.012;5.648;2022-09-03T11:22:54;4.40;;;2.10;;
32633;SDS011;19043;51.012;5.648;2022-09-03T11:25:21;4.97;;;2.40;;
32633;SDS011;19043;51.012;5.648;2022-09-03T11:28:01;4.03;;;2.42;;
32633;SDS011;19043;51.012;5.648;2022-09-03T11:33:10;3.78;;;2.15;;
32633;SDS011;19043;51.012;5.648;2022-09-03T11:38:03;3.85;;;2.45;;
32633;SDS011;19043;51.012;5.648;2022-09-03T11:40:34;4.78;;;2.30;;
32633;SDS011;19043;51.012;5.648;2022-09-03T11:43:13;4.15;;;2.42;;
32633;SDS011;19043;51.012;5.648;2022-09-03T11:56:23;3.58;;;2.15;;
32633;SDS011;19043;51.012;5.648;2022-09-03T12:01:36;6.75;;;2.70;;
32633;SDS011;19043;51.012;5.648;2022-09-03T12:04:05;8.32;;;2.47;;
32633;SDS011;19043;51.012;5.648;2022-09-03T12:14:56;4.75;;;2.55;;
32633;SDS011;19043;51.012;5.648;2022-09-03T12:20:39;17.23;;;4.05;;
32633;SDS011;19043;51.012;5.648;2022-09-03T12:23:06;5.90;;;2.67;;
32633;SDS011;19043;51.012;5.648;2022-09-03T12:25:32;4.50;;;2.70;;
32633;SDS011;19043;51.012;5.648;2022-09-03T12:27:58;5.57;;;2.47;;
32633;SDS011;19043;51.012;5.648;2022-09-03T12:30:27;5.68;;;2.53;;
32633;SDS011;19043;51.012;5.648;2022-09-03T12:33:02;4.20;;;2.33;;
32633;SDS011;19043;51.012;5.648;2022-09-03T12:35:29;4.68;;;2.17;;
32633;SDS011;19043;51.012;5.648;2022-09-03T12:37:54;8.15;;;2.25;;
32633;SDS011;19043;51.012;5.648;2022-09-03T12:40:21;4.70;;;2.47;;
32633;SDS011;19043;51.012;5.648;2022-09-03T12:42:48;4.03;;;2.58;;
32633;SDS011;19043;51.012;5.648;2022-09-03T12:45:14;5.68;;;2.40;;
32633;SDS011;19043;51.012;5.648;2022-09-03T12:47:43;6.20;;;2.60;;
32633;SDS011;19043;51.012;5.648;2022-09-03T12:50:10;3.17;;;2.00;;
32633;SDS011;19043;51.012;5.648;2022-09-03T12:58:08;9.05;;;2.13;;
32633;SDS011;19043;51.012;5.648;2022-09-03T13:00:51;5.10;;;2.70;;
32633;SDS011;19043;51.012;5.648;2022-09-03T13:03:26;4.03;;;2.33;;
32633;SDS011;19043;51.012;5.648;2022-09-03T13:05:59;5.85;;;2.90;;
32633;SDS011;19043;51.012;5.648;2022-09-03T13:08:27;5.57;;;3.47;;
32633;SDS011;19043;51.012;5.648;2022-09-03T13:10:55;5.80;;;3.10;;
32633;SDS011;19043;51.012;5.648;2022-09-03T13:13:32;6.40;;;2.92;;
32633;SDS011;19043;51.012;5.648;2022-09-03T13:19:17;7.25;;;3.30;;
32633;SDS011;19043;51.012;5.648;2022-09-03T13:22:09;12.60;;;4.28;;
32633;SDS011;19043;51.012;5.648;2022-09-03T13:24:39;10.80;;;4.90;;
32633;SDS011;19043;51.012;5.648;2022-09-03T13:35:08;8.73;;;6.35;;
32633;SDS011;19043;51.012;5.648;2022-09-03T13:40:18;18.83;;;7.68;;
32633;SDS011;19043;51.012;5.648;2022-09-03T13:42:50;15.65;;;9.82;;
32633;SDS011;19043;51.012;5.648;2022-09-03T13:45:38;13.65;;;10.38;;
32633;SDS011;19043;51.012;5.648;2022-09-03T13:48:08;17.92;;;12.88;;
32633;SDS011;19043;51.012;5.648;2022-09-03T13:53:56;11.63;;;9.90;;
32633;SDS011;19043;51.012;5.648;2022-09-03T14:07:18;6.80;;;3.42;;
32633;SDS011;19043;51.012;5.648;2022-09-03T14:09:53;5.28;;;2.67;;
32633;SDS011;19043;51.012;5.648;2022-09-03T14:20:58;5.75;;;2.72;;
32633;SDS011;19043;51.012;5.648;2022-09-03T14:24:13;5.47;;;2.65;;
32633;SDS011;19043;51.012;5.648;2022-09-03T14:26:30;4.25;;;3.38;;
32633;SDS011;19043;51.012;5.648;2022-09-03T14:40:11;5.68;;;4.15;;
32633;SDS011;19043;51.012;5.648;2022-09-03T14:42:44;5.63;;;4.25;;
32633;SDS011;19043;51.012;5.648;2022-09-03T15:05:10;4.80;;;3.45;;
32633;SDS011;19043;51.012;5.648;2022-09-03T15:10:23;5.63;;;4.47;;
32633;SDS011;19043;51.012;5.648;2022-09-03T15:12:51;4.65;;;4.00;;
32633;SDS011;19043;51.012;5.648;2022-09-03T15:15:21;4.97;;;4.20;;
32633;SDS011;19043;51.012;5.648;2022-09-03T15:26:09;7.78;;;5.80;;
32633;SDS011;19043;51.012;5.648;2022-09-03T15:28:54;8.27;;;5.10;;
32633;SDS011;19043;51.012;5.648;2022-09-03T15:31:40;10.18;;;8.40;;
32633;SDS011;19043;51.012;5.648;2022-09-03T15:34:18;8.88;;;5.82;;
32633;SDS011;19043;51.012;5.648;2022-09-03T15:36:50;7.32;;;6.00;;
32633;SDS011;19043;51.012;5.648;2022-09-03T15:39:24;6.75;;;5.85;;
32633;SDS011;19043;51.012;5.648;2022-09-03T15:41:53;7.57;;;5.88;;
32633;SDS011;19043;51.012;5.648;2022-09-03T15:44:27;6.65;;;5.03;;
32633;SDS011;19043;51.012;5.648;2022-09-03T15:47:08;6.68;;;4.80;;
32633;SDS011;19043;51.012;5.648;2022-09-03T15:52:47;5.35;;;4.75;;
32633;SDS011;19043;51.012;5.648;2022-09-03T15:55:24;7.65;;;4.47;;
32633;SDS011;19043;51.012;5.648;2022-09-03T15:57:55;8.10;;;5.03;;
32633;SDS011;19043;51.012;5.648;2022-09-03T16:00:33;5.15;;;4.53;;
32633;SDS011;19043;51.012;5.648;2022-09-03T16:05:37;6.18;;;5.28;;
32633;SDS011;19043;51.012;5.648;2022-09-03T16:10:49;6.70;;;4.93;;
32633;SDS011;19043;51.012;5.648;2022-09-03T16:13:23;11.45;;;4.65;;
32633;SDS011;19043;51.012;5.648;2022-09-03T16:15:59;6.18;;;5.57;;
32633;SDS011;19043;51.012;5.648;2022-09-03T16:18:29;6.20;;;5.25;;
32633;SDS011;19043;51.012;5.648;2022-09-03T16:21:08;7.47;;;5.45;;
32633;SDS011;19043;51.012;5.648;2022-09-03T16:23:38;6.55;;;5.53;;
32633;SDS011;19043;51.012;5.648;2022-09-03T16:26:14;5.28;;;4.63;;
32633;SDS011;19043;51.012;5.648;2022-09-03T16:29:16;7.28;;;5.20;;
32633;SDS011;19043;51.012;5.648;2022-09-03T16:37:27;6.05;;;4.43;;
32633;SDS011;19043;51.012;5.648;2022-09-03T16:43:03;8.45;;;4.50;;
32633;SDS011;19043;51.012;5.648;2022-09-03T16:46:05;5.30;;;4.65;;
32633;SDS011;19043;51.012;5.648;2022-09-03T16:56:57;9.70;;;5.10;;
32633;SDS011;19043;51.012;5.648;2022-09-03T17:02:02;5.63;;;4.85;;
32633;SDS011;19043;51.012;5.648;2022-09-03T17:15:12;9.55;;;6.53;;
32633;SDS011;19043;51.012;5.648;2022-09-03T17:23:17;9.10;;;6.38;;
32633;SDS011;19043;51.012;5.648;2022-09-03T17:26:00;8.40;;;7.07;;
32633;SDS011;19043;51.012;5.648;2022-09-03T17:28:51;7.85;;;6.78;;
32633;SDS011;19043;51.012;5.648;2022-09-03T17:34:49;9.40;;;6.85;;
32633;SDS011;19043;51.012;5.648;2022-09-03T17:40:00;8.77;;;7.88;;
32633;SDS011;19043;51.012;5.648;2022-09-03T17:45:29;17.40;;;8.15;;
32633;SDS011;19043;51.012;5.648;2022-09-03T17:48:57;8.38;;;7.47;;
32633;SDS011;19043;51.012;5.648;2022-09-03T17:51:08;11.55;;;8.23;;
32633;SDS011;19043;51.012;5.648;2022-09-03T17:58:52;11.85;;;7.10;;
32633;SDS011;19043;51.012;5.648;2022-09-03T18:01:26;10.18;;;7.43;;
32633;SDS011;19043;51.012;5.648;2022-09-03T18:09:06;13.88;;;7.53;;
32633;SDS011;19043;51.012;5.648;2022-09-03T18:11:39;8.90;;;7.22;;
32633;SDS011;19043;51.012;5.648;2022-09-03T18:16:53;8.27;;;6.63;;
32633;SDS011;19043;51.012;5.648;2022-09-03T18:22:19;7.80;;;6.97;;
32633;SDS011;19043;51.012;5.648;2022-09-03T18:25:05;11.05;;;8.73;;
32633;SDS011;19043;51.012;5.648;2022-09-03T18:27:55;10.07;;;7.25;;
32633;SDS011;19043;51.012;5.648;2022-09-03T18:30:40;9.93;;;7.13;;
32633;SDS011;19043;51.012;5.648;2022-09-03T18:33:24;8.90;;;7.27;;
32633;SDS011;19043;51.012;5.648;2022-09-03T18:36:10;8.68;;;7.78;;
32633;SDS011;19043;51.012;5.648;2022-09-03T18:39:00;12.13;;;8.15;;
32633;SDS011;19043;51.012;5.648;2022-09-03T18:44:48;10.68;;;7.30;;
32633;SDS011;19043;51.012;5.648;2022-09-03T18:53:39;8.52;;;7.15;;
32633;SDS011;19043;51.012;5.648;2022-09-03T19:15:12;10.73;;;8.00;;
32633;SDS011;19043;51.012;5.648;2022-09-03T19:21:15;10.55;;;8.40;;
32633;SDS011;19043;51.012;5.648;2022-09-03T19:24:18;10.95;;;8.68;;
32633;SDS011;19043;51.012;5.648;2022-09-03T19:27:15;11.73;;;8.32;;
32633;SDS011;19043;51.012;5.648;2022-09-03T19:30:16;15.57;;;9.35;;
32633;SDS011;19043;51.012;5.648;2022-09-03T19:33:10;12.25;;;9.55;;
32633;SDS011;19043;51.012;5.648;2022-09-03T19:47:50;12.10;;;8.80;;
32633;SDS011;19043;51.012;5.648;2022-09-03T19:50:46;9.57;;;7.75;;
32633;SDS011;19043;51.012;5.648;2022-09-03T19:53:39;9.73;;;8.73;;
32633;SDS011;19043;51.012;5.648;2022-09-03T19:56:26;14.20;;;9.47;;
32633;SDS011;19043;51.012;5.648;2022-09-03T19:59:11;19.30;;;9.93;;
32633;SDS011;19043;51.012;5.648;2022-09-03T20:01:57;9.57;;;8.27;;
32633;SDS011;19043;51.012;5.648;2022-09-03T20:04:46;10.05;;;8.57;;
32633;SDS011;19043;51.012;5.648;2022-09-03T20:07:32;17.50;;;15.63;;
32633;SDS011;19043;51.012;5.648;2022-09-03T20:10:16;13.20;;;11.90;;
32633;SDS011;19043;51.012;5.648;2022-09-03T20:13:02;14.55;;;10.57;;
32633;SDS011;19043;51.012;5.648;2022-09-03T20:15:52;15.43;;;12.13;;
32633;SDS011;19043;51.012;5.648;2022-09-03T20:21:09;13.95;;;12.52;;
32633;SDS011;19043;51.012;5.648;2022-09-03T20:32:12;12.80;;;11.40;;
32633;SDS011;19043;51.012;5.648;2022-09-03T20:34:55;12.77;;;10.98;;
32633;SDS011;19043;51.012;5.648;2022-09-03T20:37:43;11.32;;;10.20;;
32633;SDS011;19043;51.012;5.648;2022-09-03T20:46:33;10.90;;;9.23;;
32633;SDS011;19043;51.012;5.648;2022-09-03T20:51:08;12.30;;;8.15;;
32633;SDS011;19043;51.012;5.648;2022-09-03T20:53:49;11.32;;;9.15;;
32633;SDS011;19043;51.012;5.648;2022-09-03T20:56:57;12.13;;;9.63;;
32633;SDS011;19043;51.012;5.648;2022-09-03T21:05:12;9.85;;;7.63;;
32633;SDS011;19043;51.012;5.648;2022-09-03T21:07:57;9.20;;;7.63;;
32633;SDS011;19043;51.012;5.648;2022-09-03T21:16:10;9.88;;;7.75;;